createdAt,value
2019-05-12T00:00:00.942Z,70.85
2019-05-12T00:02:35.284Z,70.21
2019-05-12T00:05:09.941Z,70.55
2019-05-12T00:07:44.631Z,70.47
2019-05-12T00:10:19.612Z,70.79
2019-05-12T00:12:54.237Z,70.73
2019-05-12T00:15:28.690Z,70.72
2019-05-12T00:18:03.259Z,70.72
2019-05-12T00:20:38.611Z,70.04
2019-05-12T00:23:24.001Z,69.64
2019-05-12T00:25:48.248Z,70.24
2019-05-12T00:28:22.677Z,70.39
2019-05-12T00:30:58.050Z,70.37
2019-05-12T00:33:33.110Z,70.11
2019-05-12T00:36:08.026Z,70.21
2019-05-12T00:38:42.584Z,70.35
2019-05-12T00:41:18.165Z,70.35
2019-05-12T00:43:52.720Z,69.91
2019-05-12T00:46:27.825Z,69.83
2019-05-12T00:49:02.337Z,69.74
2019-05-12T00:51:38.460Z,69.77
2019-05-12T00:54:13.274Z,69.77
2019-05-12T00:56:48.212Z,69.70
2019-05-12T00:59:23.138Z,69.77
2019-05-12T01:01:58.767Z,69.23
2019-05-12T01:04:33.278Z,69.23
2019-05-12T01:07:08.716Z,69.16
2019-05-12T01:09:43.268Z,69.07
2019-05-12T01:12:18.176Z,69.13
2019-05-12T01:14:52.716Z,68.92
2019-05-12T01:17:28.184Z,68.30
2019-05-12T01:20:03.269Z,67.31
2019-05-12T01:22:38.220Z,67.19
2019-05-12T01:25:13.275Z,65.84
2019-05-12T01:27:48.326Z,66.13
2019-05-12T01:30:22.932Z,65.59
2019-05-12T01:32:58.163Z,64.76
2019-05-12T01:35:33.243Z,64.55
2019-05-12T01:38:08.157Z,64.19
2019-05-12T01:40:43.264Z,64.07
2019-05-12T01:43:18.618Z,64.32
2019-05-12T01:45:54.058Z,64.82
2019-05-12T01:48:28.916Z,65.11
2019-05-12T01:51:03.579Z,65.11
2019-05-12T01:53:38.034Z,65.35
2019-05-12T01:56:12.334Z,65.20
2019-05-12T01:58:48.429Z,65.20
2019-05-12T02:01:22.935Z,64.78
2019-05-12T02:03:58.573Z,65.84
2019-05-12T02:06:34.542Z,65.84
2019-05-12T02:09:13.109Z,66.33
2019-05-12T02:11:48.326Z,66.26
2019-05-12T02:14:24.265Z,66.26
2019-05-12T02:16:58.829Z,66.50
2019-05-12T02:19:34.002Z,66.38
2019-05-12T02:22:08.493Z,66.79
2019-05-12T02:24:43.272Z,66.88
2019-05-12T02:27:17.944Z,67.23
2019-05-12T02:29:51.092Z,67.27
2019-05-12T02:32:29.432Z,67.27
2019-05-12T02:35:01.297Z,67.32
2019-05-12T02:37:36.089Z,67.03
2019-05-12T02:40:15.085Z,67.39
2019-05-12T02:42:48.921Z,67.39
2019-05-12T02:45:24.830Z,67.49
2019-05-12T02:47:59.271Z,67.55
2019-05-12T02:50:38.673Z,67.61
2019-05-12T02:53:14.485Z,67.14
2019-05-12T02:55:54.086Z,66.92
2019-05-12T02:58:28.621Z,66.96
2019-05-12T03:01:05.688Z,67.19
2019-05-12T03:03:44.124Z,66.89
2019-05-12T03:06:19.941Z,67.21
2019-05-12T03:08:55.120Z,67.21
2019-05-12T03:11:30.692Z,67.46
2019-05-12T03:14:04.936Z,67.32
2019-05-12T03:16:39.251Z,67.40
2019-05-12T03:19:15.011Z,67.40
2019-05-12T03:21:49.922Z,66.94
2019-05-12T03:24:25.005Z,66.83
2019-05-12T03:26:59.308Z,67.03
2019-05-12T03:29:34.516Z,66.89
2019-05-12T03:32:09.143Z,66.93
2019-05-12T03:34:47.483Z,67.19
2019-05-12T03:37:20.302Z,67.23
2019-05-12T03:42:14.556Z,67.03
2019-05-12T03:44:49.103Z,67.35
2019-05-12T03:47:25.067Z,67.53
2019-05-12T03:49:59.921Z,67.54
2019-05-12T03:52:34.910Z,67.39
2019-05-12T03:55:29.650Z,67.38
2019-05-12T03:57:45.182Z,67.61
2019-05-12T04:00:19.734Z,67.39
2019-05-12T04:02:55.588Z,67.39
2019-05-12T04:05:30.938Z,67.31
2019-05-12T04:08:05.549Z,67.49
2019-05-12T04:10:39.921Z,67.33
2019-05-12T04:13:15.122Z,67.06
2019-05-12T04:15:51.271Z,67.74
2019-05-12T04:18:25.789Z,67.39
2019-05-12T04:20:58.997Z,67.94
2019-05-12T04:23:34.637Z,67.19
2019-05-12T04:26:12.094Z,66.83
2019-05-12T04:28:45.601Z,67.02
2019-05-12T04:31:20.272Z,67.41
2019-05-12T04:33:54.986Z,68.20
2019-05-12T04:36:29.760Z,67.81
2019-05-12T04:39:04.621Z,67.81
2019-05-12T04:41:39.310Z,67.51
2019-05-12T04:44:15.294Z,67.64
2019-05-12T04:46:50.273Z,66.97
2019-05-12T04:49:25.271Z,66.67
2019-05-12T04:52:01.266Z,66.67
2019-05-12T04:54:37.617Z,67.25
2019-05-12T04:57:14.935Z,67.04
2019-05-12T04:59:49.683Z,67.97
2019-05-12T05:02:25.198Z,67.97
2019-05-12T05:04:59.715Z,68.09
2019-05-12T05:07:36.047Z,67.97
2019-05-12T05:10:10.866Z,68.08
2019-05-12T05:12:45.021Z,67.57
2019-05-12T05:15:19.688Z,67.06
2019-05-12T05:17:54.610Z,65.95
2019-05-12T05:20:29.272Z,65.51
2019-05-12T05:23:03.970Z,65.64
2019-05-12T05:25:38.537Z,65.53
2019-05-12T05:28:14.561Z,65.53
2019-05-12T05:32:16.337Z,65.99
2019-05-12T05:34:55.846Z,66.19
2019-05-12T05:37:30.694Z,65.14
2019-05-12T05:40:04.045Z,65.25
2019-05-12T05:42:38.640Z,65.16
2019-05-12T05:45:19.566Z,65.16
2019-05-12T05:47:48.909Z,64.78
2019-05-12T05:50:24.835Z,65.83
2019-05-12T05:53:00.242Z,65.83
2019-05-12T05:55:35.076Z,65.67
2019-05-12T05:58:10.606Z,65.82
2019-05-12T06:00:46.287Z,65.82
2019-05-12T06:03:27.212Z,65.40
2019-05-12T06:06:01.417Z,65.32
2019-05-12T06:08:35.107Z,65.84
2019-05-12T06:11:14.774Z,65.16
2019-05-12T06:13:46.124Z,65.16
2019-05-12T06:16:25.105Z,64.83
2019-05-12T06:18:58.322Z,64.01
2019-05-12T06:21:36.834Z,64.01
2019-05-12T06:24:14.272Z,63.84
2019-05-12T06:26:56.776Z,64.07
2019-05-12T06:29:22.701Z,63.39
2019-05-12T06:32:00.037Z,63.90
2019-05-12T06:34:34.598Z,63.83
2019-05-12T06:37:16.774Z,63.93
2019-05-12T06:39:45.291Z,63.63
2019-05-12T06:42:19.884Z,64.12
2019-05-12T06:44:57.917Z,63.95
2019-05-12T06:47:30.253Z,63.82
2019-05-12T06:50:05.275Z,63.36
2019-05-12T06:52:46.773Z,63.58
2019-05-12T06:55:55.669Z,64.39
2019-05-12T06:58:33.918Z,63.92
2019-05-12T07:01:11.067Z,63.92
2019-05-12T07:03:44.098Z,63.50
2019-05-12T07:06:19.967Z,63.15
2019-05-12T07:09:03.594Z,62.75
2019-05-12T07:11:41.669Z,62.75
2019-05-12T07:14:13.103Z,63.01
2019-05-12T07:16:45.263Z,62.71
2019-05-12T07:19:22.845Z,62.71
2019-05-12T07:21:59.839Z,62.78
2019-05-12T07:24:34.037Z,62.77
2019-05-12T07:27:09.390Z,62.77
2019-05-12T07:29:43.947Z,62.80
2019-05-12T07:32:24.017Z,63.55
2019-05-12T07:34:57.246Z,63.66
2019-05-12T07:37:34.925Z,63.66
2019-05-12T07:40:10.255Z,63.67
2019-05-12T07:42:45.620Z,63.46
2019-05-12T07:45:22.347Z,63.02
2019-05-12T07:47:59.575Z,63.40
2019-05-12T07:50:30.801Z,62.24
2019-05-12T07:53:04.942Z,61.67
2019-05-12T07:55:39.815Z,62.24
2019-05-12T07:58:18.694Z,61.31
2019-05-12T08:00:56.231Z,61.91
2019-05-12T08:03:27.697Z,62.15
2019-05-12T08:06:04.512Z,61.61
2019-05-12T08:08:41.908Z,60.81
2019-05-12T08:11:14.920Z,60.43
2019-05-12T08:13:49.615Z,60.84
2019-05-12T08:16:25.771Z,60.84
2019-05-12T08:18:59.936Z,60.46
2019-05-12T08:21:43.793Z,60.48
2019-05-12T08:24:11.332Z,60.33
2019-05-12T08:26:49.710Z,60.25
2019-05-12T08:29:24.255Z,59.72
2019-05-12T08:31:58.236Z,60.04
2019-05-12T08:34:34.070Z,60.22
2019-05-12T08:37:08.686Z,60.22
2019-05-12T08:39:44.241Z,59.16
2019-05-12T08:42:18.873Z,58.17
2019-05-12T08:44:54.127Z,57.73
2019-05-12T08:47:33.819Z,57.85
2019-05-12T08:50:05.115Z,58.13
2019-05-12T08:52:41.343Z,57.84
2019-05-12T08:55:16.932Z,57.84
2019-05-12T08:57:51.305Z,58.14
2019-05-12T09:00:39.566Z,58.14
2019-05-12T09:03:14.338Z,58.54
2019-05-12T09:05:49.269Z,57.38
2019-05-12T09:08:24.407Z,55.35
2019-05-12T09:10:58.936Z,55.35
2019-05-12T09:13:33.861Z,54.51
2019-05-12T09:16:09.819Z,53.28
2019-05-12T09:18:44.131Z,53.28
2019-05-12T09:21:23.640Z,50.02
2019-05-12T09:23:56.055Z,49.91
2019-05-12T09:26:30.685Z,50.87
2019-05-12T09:29:07.450Z,50.22
2019-05-12T09:31:39.877Z,47.27
2019-05-12T09:34:16.181Z,47.98
2019-05-12T09:36:51.905Z,48.48
2019-05-12T09:39:25.098Z,49.22
2019-05-12T09:41:59.683Z,48.32
2019-05-12T09:44:34.199Z,47.47
2019-05-12T09:47:19.514Z,48.02
2019-05-12T09:49:44.910Z,48.89
2019-05-12T09:52:22.171Z,49.21
2019-05-12T09:54:55.268Z,49.21
2019-05-12T09:57:32.414Z,49.04
2019-05-12T10:00:06.870Z,49.06
2019-05-12T10:02:43.432Z,47.75
2019-05-12T10:05:17.273Z,45.54
2019-05-12T10:07:53.535Z,45.11
2019-05-12T10:10:29.126Z,45.11
2019-05-12T10:13:04.701Z,45.72
2019-05-12T10:15:39.668Z,47.33
2019-05-12T10:18:14.449Z,47.33
2019-05-12T10:20:48.946Z,46.74
2019-05-12T10:23:25.131Z,43.24
2019-05-12T10:26:01.534Z,42.39
2019-05-12T10:28:34.942Z,42.99
2019-05-12T10:31:09.279Z,42.99
2019-05-12T10:33:43.891Z,44.37
2019-05-12T10:36:18.257Z,45.08
2019-05-12T10:38:53.841Z,42.35
2019-05-12T10:41:28.266Z,40.20
2019-05-12T10:44:04.065Z,37.71
2019-05-12T10:46:42.308Z,37.71
2019-05-12T10:49:15.193Z,34.22
2019-05-12T10:51:49.693Z,31.63
2019-05-12T10:54:24.332Z,31.87
2019-05-12T10:56:58.879Z,35.99
2019-05-12T10:59:38.327Z,35.99
2019-05-12T11:02:09.271Z,35.58
2019-05-12T11:04:44.078Z,35.89
2019-05-12T11:07:23.012Z,36.74
2019-05-12T11:09:54.789Z,36.74
2019-05-12T11:12:29.223Z,37.90
2019-05-12T11:15:06.665Z,38.71
2019-05-12T11:17:58.608Z,35.55
2019-05-12T11:20:34.315Z,33.35
2019-05-12T11:23:08.923Z,33.35
2019-05-12T11:25:44.018Z,30.52
2019-05-12T11:28:18.709Z,28.62
2019-05-12T11:30:53.256Z,28.62
2019-05-12T11:33:27.687Z,28.23
2019-05-12T11:36:04.264Z,28.23
2019-05-12T11:38:38.117Z,26.15
2019-05-12T11:41:16.077Z,27.72
2019-05-12T11:43:48.753Z,27.72
2019-05-12T11:46:23.772Z,30.38
2019-05-12T11:48:58.328Z,28.69
2019-05-12T11:51:34.056Z,26.42
2019-05-12T11:54:10.494Z,24.18
2019-05-12T11:56:46.618Z,28.21
2019-05-12T11:59:23.760Z,28.21
2019-05-12T12:01:56.668Z,27.38
2019-05-12T12:04:46.269Z,26.30
2019-05-12T12:07:20.692Z,24.22
2019-05-12T12:09:59.316Z,24.02
2019-05-12T12:12:30.943Z,23.74
2019-05-12T12:15:05.352Z,26.22
2019-05-12T12:17:39.952Z,24.53
2019-05-12T12:20:22.319Z,21.81
2019-05-12T12:22:54.877Z,20.93
2019-05-12T12:25:33.874Z,19.57
2019-05-12T12:28:07.674Z,23.24
2019-05-12T12:30:40.674Z,23.24
2019-05-12T12:33:15.935Z,22.40
2019-05-12T12:35:55.344Z,24.05
2019-05-12T12:38:26.093Z,22.40
2019-05-12T12:41:00.578Z,22.45
2019-05-12T12:43:34.941Z,22.45
2019-05-12T12:46:18.283Z,19.97
2019-05-12T12:48:50.859Z,20.95
2019-05-12T12:51:23.862Z,23.25
2019-05-12T12:53:58.278Z,25.12
2019-05-12T12:56:34.100Z,23.62
2019-05-12T12:59:10.762Z,22.05
2019-05-12T13:01:44.785Z,22.05
2019-05-12T13:04:17.862Z,20.31
2019-05-12T13:06:54.232Z,19.27
2019-05-12T13:09:28.249Z,18.10
2019-05-12T13:12:06.005Z,18.18
2019-05-12T13:14:38.695Z,17.21
2019-05-12T13:17:14.212Z,17.78
2019-05-12T13:19:53.639Z,16.68
2019-05-12T13:22:25.338Z,16.89
2019-05-12T13:25:04.581Z,17.10
2019-05-12T13:27:36.924Z,16.58
2019-05-12T13:30:19.818Z,15.46
2019-05-12T13:32:48.925Z,15.46
2019-05-12T13:35:23.798Z,16.08
2019-05-12T13:38:00.433Z,16.30
2019-05-12T13:40:36.082Z,17.53
2019-05-12T13:43:15.471Z,18.08
2019-05-12T13:45:46.906Z,18.08
2019-05-12T13:48:23.729Z,15.79
2019-05-12T13:51:07.549Z,17.00
2019-05-12T13:53:33.539Z,17.19
2019-05-12T13:56:07.938Z,16.32
2019-05-12T13:58:43.642Z,16.41
2019-05-12T14:01:20.383Z,14.81
2019-05-12T14:03:54.268Z,15.97
2019-05-12T14:06:32.980Z,15.86
2019-05-12T14:09:07.507Z,15.31
2019-05-12T14:11:43.767Z,16.74
2019-05-12T14:14:17.944Z,16.59
2019-05-12T14:16:59.134Z,16.59
2019-05-12T14:19:35.056Z,18.86
2019-05-12T14:22:05.320Z,21.13
2019-05-12T14:24:41.929Z,19.93
2019-05-12T14:27:19.254Z,18.08
2019-05-12T14:29:53.705Z,17.35
2019-05-12T14:32:28.265Z,16.09
2019-05-12T14:35:04.289Z,16.27
2019-05-12T14:37:40.460Z,16.87
2019-05-12T14:40:15.707Z,15.39
2019-05-12T14:42:50.113Z,16.90
2019-05-12T14:45:29.878Z,16.86
2019-05-12T14:48:07.539Z,16.37
2019-05-12T14:50:37.935Z,20.55
2019-05-12T14:53:13.844Z,20.55
2019-05-12T14:55:48.261Z,22.07
2019-05-12T14:58:23.654Z,20.47
2019-05-12T15:00:58.441Z,21.33
2019-05-12T15:03:34.260Z,21.33
2019-05-12T15:06:08.923Z,22.92
2019-05-12T15:08:43.638Z,22.22
2019-05-12T15:11:16.659Z,22.82
2019-05-12T15:13:50.928Z,22.13
2019-05-12T15:16:25.283Z,23.64
2019-05-12T15:18:59.947Z,22.22
2019-05-12T15:21:34.244Z,21.65
2019-05-12T15:24:33.700Z,20.79
2019-05-12T15:27:06.792Z,20.79
2019-05-12T15:29:40.947Z,22.80
2019-05-12T15:32:15.417Z,23.17
2019-05-12T15:34:49.949Z,25.07
2019-05-12T15:37:29.069Z,26.61
2019-05-12T15:40:00.699Z,26.61
2019-05-12T15:42:35.247Z,25.98
2019-05-12T15:45:12.892Z,26.41
2019-05-12T15:47:46.319Z,25.98
2019-05-12T15:50:20.776Z,26.90
2019-05-12T15:52:54.681Z,25.96
2019-05-12T15:55:33.005Z,26.09
2019-05-12T15:58:05.797Z,26.46
2019-05-12T16:00:38.861Z,26.60
2019-05-12T16:03:12.951Z,27.16
2019-05-12T16:05:47.314Z,26.85
2019-05-12T16:08:21.684Z,27.39
2019-05-12T16:10:56.251Z,27.39
2019-05-12T16:13:30.688Z,27.47
2019-05-12T16:16:06.755Z,27.39
2019-05-12T16:18:46.708Z,28.01
2019-05-12T16:21:17.288Z,28.80
2019-05-12T16:23:53.494Z,27.94
2019-05-12T16:26:27.961Z,28.47
2019-05-12T16:29:06.995Z,28.75
2019-05-12T16:31:48.255Z,27.98
2019-05-12T16:34:17.285Z,28.10
2019-05-12T16:36:52.649Z,28.54
2019-05-12T16:39:30.389Z,28.55
2019-05-12T16:42:06.206Z,28.66
2019-05-12T16:44:38.928Z,28.64
2019-05-12T16:47:18.366Z,29.42
2019-05-12T16:49:49.291Z,30.09
2019-05-12T16:52:24.365Z,30.52
2019-05-12T16:54:58.939Z,30.13
2019-05-12T16:57:33.733Z,31.00
2019-05-12T17:00:08.283Z,31.00
2019-05-12T17:02:52.089Z,31.80
2019-05-12T17:05:20.573Z,31.80
2019-05-12T17:07:55.826Z,31.14
2019-05-12T17:10:33.651Z,31.39
2019-05-12T17:13:13.136Z,31.50
2019-05-12T17:15:48.351Z,32.95
2019-05-12T17:18:19.948Z,32.95
2019-05-12T17:20:54.592Z,32.11
2019-05-12T17:23:29.095Z,32.86
2019-05-12T17:26:03.947Z,32.66
2019-05-12T17:28:38.342Z,33.68
2019-05-12T17:31:12.679Z,33.68
2019-05-12T17:33:45.796Z,33.71
2019-05-12T17:36:19.947Z,33.48
2019-05-12T17:38:56.259Z,33.96
2019-05-12T17:41:31.627Z,34.46
2019-05-12T17:44:05.134Z,34.31
2019-05-12T17:46:39.811Z,34.36
2019-05-12T17:49:21.298Z,34.36
2019-05-12T17:51:48.917Z,34.82
2019-05-12T17:54:26.217Z,35.66
2019-05-12T17:56:59.263Z,35.66
2019-05-12T17:59:33.713Z,35.58
2019-05-12T18:02:14.969Z,36.38
2019-05-12T18:04:44.200Z,36.63
2019-05-12T18:07:19.412Z,37.44
2019-05-12T18:09:56.715Z,37.44
2019-05-12T18:12:36.101Z,37.26
2019-05-12T18:15:06.299Z,37.46
2019-05-12T18:17:47.302Z,37.46
2019-05-12T18:20:17.334Z,37.66
2019-05-12T18:22:53.576Z,37.79
2019-05-12T18:25:30.404Z,37.79
2019-05-12T18:28:05.334Z,37.08
2019-05-12T18:30:39.681Z,37.91
2019-05-12T18:33:48.918Z,37.97
2019-05-12T18:36:18.154Z,37.69
2019-05-12T18:38:56.362Z,38.66
2019-05-12T18:41:28.883Z,38.66
2019-05-12T18:44:04.260Z,38.19
2019-05-12T18:46:44.864Z,38.53
2019-05-12T18:49:16.016Z,38.91
2019-05-12T18:51:55.189Z,39.33
2019-05-12T18:54:25.968Z,39.05
2019-05-12T18:57:04.179Z,40.05
2019-05-12T18:59:36.711Z,40.05
2019-05-12T19:02:14.658Z,40.02
2019-05-12T19:04:47.261Z,39.95
2019-05-12T19:07:38.314Z,40.31
2019-05-12T19:09:57.964Z,40.82
2019-05-12T19:12:34.835Z,40.58
2019-05-12T19:15:10.349Z,41.16
2019-05-12T19:17:45.795Z,41.38
2019-05-12T19:20:20.123Z,41.29
2019-05-12T19:22:59.796Z,41.80
2019-05-12T19:25:35.875Z,41.80
2019-05-12T19:28:10.401Z,42.40
2019-05-12T19:30:43.598Z,41.46
2019-05-12T19:33:17.689Z,41.00
2019-05-12T19:35:59.887Z,41.00
2019-05-12T19:38:28.112Z,41.20
2019-05-12T19:41:04.605Z,41.44
2019-05-12T19:43:39.341Z,41.21
2019-05-12T19:46:16.789Z,42.04
2019-05-12T19:48:51.274Z,42.67
2019-05-12T19:51:28.350Z,42.04
2019-05-12T19:54:03.517Z,41.87
2019-05-12T19:56:39.524Z,41.32
2019-05-12T19:59:14.681Z,41.77
2019-05-12T20:01:49.076Z,41.70
2019-05-12T20:04:33.232Z,41.79
2019-05-12T20:06:58.063Z,41.53
2019-05-12T20:09:32.336Z,41.09
2019-05-12T20:12:12.422Z,41.70
2019-05-12T20:14:43.487Z,41.70
2019-05-12T20:17:18.639Z,41.56
2019-05-12T20:19:53.994Z,41.47
2019-05-12T20:22:28.627Z,41.72
2019-05-12T20:25:04.336Z,41.72
2019-05-12T20:27:39.250Z,41.84
2019-05-12T20:30:18.901Z,42.12
2019-05-12T20:32:50.119Z,41.88
2019-05-12T20:35:24.593Z,41.63
2019-05-12T20:37:59.123Z,41.63
2019-05-12T20:40:37.698Z,42.06
2019-05-12T20:43:12.261Z,42.12
2019-05-12T20:45:45.973Z,42.28
2019-05-12T20:48:26.465Z,41.93
2019-05-12T20:50:57.289Z,41.98
2019-05-12T20:53:34.300Z,41.48
2019-05-12T20:56:12.157Z,41.48
2019-05-12T20:58:46.543Z,41.58
2019-05-12T21:01:28.289Z,41.99
2019-05-12T21:03:56.931Z,41.84
2019-05-12T21:06:41.323Z,42.04
2019-05-12T21:09:09.640Z,42.10
2019-05-12T21:11:44.298Z,42.46
2019-05-12T21:14:19.324Z,42.10
2019-05-12T21:16:54.069Z,42.29
2019-05-12T21:19:29.371Z,42.39
2019-05-12T21:22:04.777Z,42.38
2019-05-12T21:24:39.460Z,42.44
2019-05-12T21:27:17.930Z,42.78
2019-05-12T21:29:50.263Z,42.35
2019-05-12T21:32:24.755Z,42.19
2019-05-12T21:34:59.601Z,41.91
2019-05-12T21:37:37.121Z,41.99
2019-05-12T21:40:09.873Z,41.99
2019-05-12T21:42:44.641Z,42.08
2019-05-12T21:45:20.257Z,41.87
2019-05-12T21:47:56.739Z,41.75
2019-05-12T21:50:32.808Z,41.67
2019-05-12T21:53:10.139Z,41.89
2019-05-12T21:55:44.340Z,41.69
2019-05-12T21:58:19.115Z,41.72
2019-05-12T22:01:04.268Z,41.58
2019-05-12T22:03:34.966Z,41.58
2019-05-12T22:06:16.702Z,41.61
2019-05-12T22:08:45.934Z,41.53
2019-05-12T22:11:20.769Z,41.40
2019-05-12T22:14:00.080Z,41.40
2019-05-12T22:16:39.712Z,42.07
2019-05-12T22:21:23.717Z,42.10
2019-05-12T22:23:58.312Z,42.10
2019-05-12T22:26:39.673Z,42.49
2019-05-12T22:29:08.951Z,42.94
2019-05-12T22:31:46.435Z,42.94
2019-05-12T22:34:19.352Z,42.91
2019-05-12T22:36:57.866Z,42.77
2019-05-12T22:39:33.797Z,43.60
2019-05-12T22:42:11.634Z,43.60
2019-05-12T22:44:43.758Z,43.64
2019-05-12T22:47:17.603Z,44.01
2019-05-12T22:49:56.976Z,44.70
2019-05-12T22:52:33.752Z,44.67
2019-05-12T22:55:09.285Z,44.67
2019-05-12T22:57:44.290Z,44.73
2019-05-12T23:00:21.574Z,44.79
2019-05-12T23:03:00.459Z,45.13
2019-05-12T23:05:35.295Z,45.13
2019-05-12T23:08:10.264Z,45.25
2019-05-12T23:10:51.278Z,45.13
2019-05-12T23:13:20.786Z,45.60
2019-05-12T23:15:55.130Z,45.75
2019-05-12T23:18:30.930Z,45.86
2019-05-12T23:21:12.613Z,46.03
2019-05-12T23:23:43.643Z,46.44
2019-05-12T23:26:19.327Z,46.44
2019-05-12T23:28:54.953Z,46.34
2019-05-12T23:31:30.386Z,46.40
2019-05-12T23:34:06.476Z,46.84
2019-05-12T23:36:40.948Z,46.68
2019-05-12T23:39:14.963Z,46.92
2019-05-12T23:41:49.339Z,47.05
2019-05-12T23:44:24.074Z,47.34
2019-05-12T23:46:58.303Z,47.20
2019-05-12T23:49:33.735Z,47.20
2019-05-12T23:52:07.163Z,47.05
2019-05-12T23:54:41.335Z,47.24
2019-05-12T23:57:15.878Z,47.38
2019-05-12T23:59:49.279Z,48.30
